Weather reports worldwide

Advertisment
Herwijnen aws, Netherlands (6356): temperature & dewpoint: 24.09.2020 17:00:00 - 30.09.2020 17:00:00 (CEST)Herwijnen aws, Netherlands (6356): temperature 5cm: 24.09.2020 17:00:00 - 30.09.2020 17:00:00 (CEST)Herwijnen aws, Netherlands (6356): wind speed & gusts: 24.09.2020 17:00:00 - 30.09.2020 17:00:00 (CEST)Herwijnen aws, Netherlands (6356): wind direction: 24.09.2020 17:00:00 - 30.09.2020 17:00:00 (CEST)Herwijnen aws, Netherlands (6356): reduced air pressure: 24.09.2020 17:00:00 - 30.09.2020 17:00:00 (CEST)Herwijnen aws, Netherlands (6356): precipitation: 24.09.2020 17:00:00 - 30.09.2020 17:00:00 (CEST)
Date & Time tt [°C] td [°C] tt 5cm [°C] ff [km/h] ff [kn] fx [km/h] fx [kn] dd ppp [hPa] rr [mm]
30.09.2020 17:00:00 17,3 14,5 17,2 11 6 25 14 SSW 1010,7 0,1
30.09.2020 16:00:00 17,0 15,0 17,0 11 6 22 12 SSW 1011,4 0,3
30.09.2020 15:00:00 18,6 14,7 18,6 14 8 29 16 S 1011,6 0,0
30.09.2020 14:00:00 18,5 15,0 19,0 11 6 25 14 S 1012,4 0,0
30.09.2020 13:00:00 17,3 15,0 17,3 11 6 18 10 S 1013,1 0,0
30.09.2020 12:00:00 16,4 14,5 16,9 14 8 25 14 S 1013,7 0,0
30.09.2020 11:00:00 16,0 14,6 16,4 11 6 18 10 S 1014,2 0,0
30.09.2020 10:00:00 14,8 13,7 14,9 7 4 14 8 S 1014,4 0,0
30.09.2020 09:00:00 14,3 13,5 14,1 7 4 14 8 S 1014,4 0,0
30.09.2020 08:00:00 12,8 12,5 12,0 7 4 11 6 S 1014,4 0,0
30.09.2020 07:00:00 12,8 12,5 12,1 7 4 11 6 S 1014,7 0,0
30.09.2020 06:00:00 13,3 12,8 12,1 7 4 11 6 S 1014,9 0,0
30.09.2020 05:00:00 13,7 13,5 13,4 7 4 14 8 S 1015,0 0,0
30.09.2020 04:00:00 12,5 12,1 11,1 7 4 18 10 S 1015,4 0,0
30.09.2020 03:00:00 13,6 13,0 12,1 11 6 14 8 SSW 1015,7 0,0
30.09.2020 02:00:00 13,3 13,0 11,7 7 4 11 6 S 1015,7 0,0
30.09.2020 01:00:00 13,7 13,2 12,4 7 4 11 6 S 1015,9 0,0
30.09.2020 00:00:00 14,4 13,8 13,5 7 4 11 6 S 1016,0 0,0
29.09.2020 23:00:00 14,8 13,4 14,5 7 4 7 4 SSE 1016,2 0,0
29.09.2020 22:00:00 14,9 13,1 14,6 7 4 7 4 SE 1016,3 0,0
29.09.2020 21:00:00 15,2 12,5 14,8 4 2 11 6 ESE 1016,1 0,0
29.09.2020 20:00:00 15,5 12,9 15,2 0 0 4 2 N 1016,2 0,0
29.09.2020 19:00:00 15,9 11,1 15,6 4 2 11 6 SW 1016,0 0,0
29.09.2020 18:00:00 17,1 10,0 17,3 7 4 18 10 SW 1015,8 0,0
29.09.2020 17:00:00 17,6 10,6 17,7 11 6 18 10 WSW 1015,6 0,0
29.09.2020 16:00:00 17,4 10,9 18,4 11 6 22 12 WSW 1015,5 0,0
29.09.2020 15:00:00 17,6 10,5 19,6 11 6 18 10 WSW 1015,7 0,0
29.09.2020 14:00:00 16,8 11,9 17,1 11 6 14 8 W 1016,0 0,0
29.09.2020 13:00:00 16,2 12,5 17,1 7 4 18 10 NW 1015,9 0,0
29.09.2020 12:00:00 16,3 12,4 17,1 14 8 18 10 W 1015,7 0,0
29.09.2020 11:00:00 15,2 13,2 15,4 11 6 14 8 WSW 1015,4 0,0
29.09.2020 10:00:00 14,2 12,6 14,0 11 6 14 8 W 1015,0 0,0
29.09.2020 09:00:00 13,8 13,0 13,7 11 6 14 8 W 1014,5 0,0
29.09.2020 08:00:00 13,9 13,5 13,8 11 6 18 10 W 1013,8 1,2
29.09.2020 07:00:00 14,0 13,7 14,0 14 8 29 16 W 1013,4 0,1
29.09.2020 06:00:00 14,4 14,1 13,8 14 8 18 10 W 1013,0 0,2
29.09.2020 05:00:00 12,5 12,4 12,5 4 2 7 4 SSW 1012,7 0,1
29.09.2020 04:00:00 12,0 11,9 12,2 4 2 11 6 SSE 1012,7 0,5
29.09.2020 03:00:00 11,9 11,7 12,1 7 4 11 6 SSE 1012,4 0,4
29.09.2020 02:00:00 12,0 11,5 12,1 7 4 11 6 SSE 1012,2 0,1
29.09.2020 01:00:00 11,9 11,3 12,0 7 4 11 6 SSE 1012,2 0,0
29.09.2020 00:00:00 11,9 11,2 12,0 7 4 11 6 SE 1012,1 0,0
28.09.2020 23:00:00 11,8 11,5 12,0 4 2 11 6 SE 1011,9 0,0
28.09.2020 22:00:00 11,9 11,4 12,1 7 4 11 6 SSE 1011,6 0,0
28.09.2020 21:00:00 12,1 11,4 12,2 11 6 14 8 SSE 1011,2 0,0
28.09.2020 20:00:00 12,2 11,6 12,3 7 4 14 8 SSE 1010,7 0,0
28.09.2020 19:00:00 12,2 11,6 12,4 11 6 18 10 SSE 1010,1 0,0
28.09.2020 18:00:00 12,6 11,9 12,9 11 6 18 10 SSE 1009,4 0,0
28.09.2020 17:00:00 13,0 12,3 13,2 11 6 18 10 SSE 1009,1 0,0
28.09.2020 16:00:00 13,1 12,5 13,4 11 6 14 8 S 1008,8 0,0
28.09.2020 15:00:00 12,9 12,5 13,3 11 6 14 8 S 1008,7 0,0
28.09.2020 14:00:00 12,9 12,5 13,3 11 6 18 10 SSE 1008,7 0,0
28.09.2020 13:00:00 12,8 12,3 13,0 11 6 18 10 S 1008,5 0,0
28.09.2020 12:00:00 12,8 12,2 13,0 11 6 25 14 S 1008,2 0,0
28.09.2020 11:00:00 12,8 12,3 13,2 11 6 22 12 S 1007,9 0,2
28.09.2020 10:00:00 12,7 12,1 12,8 14 8 18 10 S 1007,8 0,0
28.09.2020 09:00:00 12,5 12,1 12,6 14 8 25 14 S 1007,3 0,0
28.09.2020 08:00:00 12,2 11,8 12,2 11 6 18 10 S 1007,2 0,3
28.09.2020 07:00:00 12,2 11,7 12,2 7 4 18 10 S 1007,1 0,2
28.09.2020 06:00:00 12,1 11,7 12,1 11 6 18 10 SSW 1007,0 0,5
28.09.2020 05:00:00 12,3 12,0 12,4 11 6 18 10 SSW 1007,3 0,8
28.09.2020 04:00:00 12,2 11,7 12,3 7 4 7 4 SSW 1007,8 0,3
28.09.2020 03:00:00 12,5 11,1 12,3 7 4 7 4 SSW 1007,9 0,0
28.09.2020 02:00:00 12,4 11,1 12,3 4 2 7 4 SW 1008,1 0,0
28.09.2020 01:00:00 12,4 11,3 12,3 4 2 7 4 SSE 1008,3 0,0
28.09.2020 00:00:00 12,2 11,2 12,2 4 2 4 2 SSE 1008,1 0,0
27.09.2020 23:00:00 12,3 11,5 12,3 4 2 4 2 S 1008,0 0,0
27.09.2020 22:00:00 12,5 11,6 12,6 0 0 7 4 N 1007,6 0,0
27.09.2020 21:00:00 12,9 11,0 12,8 4 2 7 4 SE 1007,4 0,0
27.09.2020 20:00:00 13,1 10,8 13,1 4 2 4 2 SSE 1006,8 0,0
27.09.2020 19:00:00 13,7 10,7 13,6 4 2 7 4 E 1006,4 0,0
27.09.2020 18:00:00 14,1 10,6 14,5 4 2 14 8 E 1006,2 0,0
27.09.2020 17:00:00 14,0 10,7 14,6 11 6 18 10 E 1005,6 0,0
27.09.2020 16:00:00 13,9 10,4 14,8 7 4 14 8 ENE 1005,3 0,0
27.09.2020 15:00:00 13,6 10,1 14,5 11 6 22 12 NE 1004,7 0,0
27.09.2020 14:00:00 13,3 10,4 13,9 14 8 25 14 NE 1004,2 0,0
27.09.2020 13:00:00 13,0 10,1 13,4 11 6 22 12 NE 1003,7 0,0
27.09.2020 12:00:00 13,1 10,5 13,6 7 4 25 14 ENE 1003,1 0,0
27.09.2020 11:00:00 13,4 10,3 14,0 14 8 29 16 ENE 1001,9 0,0
27.09.2020 10:00:00 13,6 11,6 14,0 18 10 36 19 NE 1000,6 0,0
27.09.2020 09:00:00 14,3 11,8 14,2 25 14 40 21 NE 999,1 0,0
27.09.2020 08:00:00 15,6 13,4 15,3 18 10 47 25 NNE 997,6 0,0
27.09.2020 07:00:00 16,3 14,5 15,7 25 14 43 23 N 996,2 0,0
27.09.2020 06:00:00 15,9 14,5 15,4 25 14 43 23 N 995,6 0,0
27.09.2020 05:00:00 15,2 14,3 14,7 22 12 47 25 N 995,5 0,4
27.09.2020 04:00:00 14,1 13,4 13,8 25 14 47 25 N 995,4 1,0
27.09.2020 03:00:00 13,3 12,6 13,0 25 14 50 27 NNW 995,8 1,6
27.09.2020 02:00:00 12,4 11,5 12,1 29 16 43 23 NW 996,9 1,6
27.09.2020 01:00:00 11,9 10,7 11,6 22 12 36 19 NW 998,8 3,2
27.09.2020 00:00:00 12,3 10,4 11,9 18 10 36 19 NNW 999,7 0,5
26.09.2020 23:00:00 12,6 11,0 12,2 18 10 40 21 NNW 999,8 0,8
26.09.2020 22:00:00 12,8 11,8 12,6 18 10 32 18 NNW 1000,7 2,6
26.09.2020 21:00:00 13,0 11,2 12,6 11 6 22 12 NW 1000,7 0,6
26.09.2020 20:00:00 13,5 10,0 12,9 11 6 14 8 WNW 1000,9 0,0
26.09.2020 19:00:00 13,6 9,5 13,3 7 4 18 10 NW 1000,9 0,0
26.09.2020 18:00:00 15,2 8,8 15,3 11 6 22 12 N 1000,9 0,0
26.09.2020 17:00:00 15,8 8,4 16,5 14 8 25 14 N 1000,6 0,0
26.09.2020 16:00:00 15,7 8,3 16,1 14 8 29 16 N 1000,4 0,0
26.09.2020 15:00:00 15,4 7,2 16,3 14 8 29 16 N 1000,4 0,0
26.09.2020 14:00:00 16,0 7,8 17,0 14 8 29 16 N 999,9 0,0
26.09.2020 13:00:00 15,4 8,5 16,8 11 6 25 14 N 999,6 0,0
26.09.2020 12:00:00 14,6 9,0 16,6 11 6 22 12 NNW 999,1 0,0
26.09.2020 11:00:00 13,4 8,4 14,9 11 6 18 10 NW 998,9 0,0
26.09.2020 10:00:00 12,2 9,0 12,7 14 8 22 12 NW 998,8 0,0
26.09.2020 09:00:00 10,3 8,7 9,4 11 6 25 14 NW 998,1 0,0
26.09.2020 08:00:00 9,4 8,3 8,9 11 6 18 10 NW 997,7 0,0
26.09.2020 07:00:00 10,4 8,6 10,1 11 6 25 14 NNW 996,9 0,0
26.09.2020 06:00:00 10,4 9,1 10,1 14 8 25 14 NNW 996,1 0,0
26.09.2020 05:00:00 10,3 8,9 9,7 14 8 29 16 NNW 995,3 0,0
26.09.2020 04:00:00 10,6 9,2 10,3 14 8 36 19 N 994,4 0,0
26.09.2020 03:00:00 10,4 8,7 10,0 18 10 32 18 N 993,5 0,0
26.09.2020 02:00:00 10,5 9,7 10,5 14 8 32 18 NNW 992,3 0,0
26.09.2020 01:00:00 10,6 9,9 10,6 14 8 29 16 NW 991,5 0,0
26.09.2020 00:00:00 10,7 10,0 10,7 22 12 32 18 NW 990,3 0,0
25.09.2020 23:00:00 12,0 10,6 11,8 25 14 43 23 W 989,3 2,2
25.09.2020 22:00:00 11,0 9,4 10,9 22 12 36 19 S 990,0 0,6
25.09.2020 21:00:00 10,8 9,9 10,6 22 12 32 18 SSW 991,8 0,0
25.09.2020 20:00:00 11,2 9,8 10,9 18 10 32 18 SSW 992,4 0,0
25.09.2020 19:00:00 11,8 10,3 11,2 25 14 40 21 SW 992,5 0,5
25.09.2020 18:00:00 10,5 9,4 10,6 29 16 47 25 SSW 993,0 0,7
25.09.2020 17:00:00 11,0 9,0 11,2 29 16 47 25 SSW 993,9 0,2
25.09.2020 16:00:00 10,8 9,6 11,1 18 10 47 25 SW 994,4 1,5
25.09.2020 15:00:00 12,4 9,8 12,0 29 16 50 27 SW 994,0 0,0
25.09.2020 14:00:00 12,6 7,5 12,8 22 12 40 21 SSW 994,2 0,0
25.09.2020 13:00:00 12,2 7,8 13,1 25 14 40 21 SSW 994,3 0,0
25.09.2020 12:00:00 11,3 7,4 11,5 22 12 36 19 S 995,1 0,0
25.09.2020 11:00:00 10,8 7,2 11,1 18 10 32 18 S 995,2 0,0
25.09.2020 10:00:00 10,1 7,1 10,3 22 12 32 18 S 994,6 0,0
25.09.2020 09:00:00 9,0 6,5 8,6 14 8 29 16 SSW 994,5 0,0
25.09.2020 08:00:00 8,5 6,3 7,7 18 10 32 18 S 995,2 0,0
25.09.2020 07:00:00 8,8 6,5 8,1 22 12 32 18 SSW 994,8 0,0
25.09.2020 06:00:00 9,6 7,4 8,8 18 10 29 16 S 994,6 0,0
25.09.2020 05:00:00 10,3 7,2 9,5 22 12 32 18 SSW 994,4 0,0
25.09.2020 04:00:00 11,3 9,3 10,9 18 10 29 16 SSW 994,3 0,0
25.09.2020 03:00:00 11,7 9,8 11,3 18 10 40 21 SSW 994,7 0,0
25.09.2020 02:00:00 12,5 10,4 12,1 22 12 36 19 SSW 995,2 0,0
25.09.2020 01:00:00 13,0 11,6 12,7 14 8 25 14 S 994,6 0,0
25.09.2020 00:00:00 13,2 11,7 12,8 11 6 29 16 S 995,2 0,0
24.09.2020 23:00:00 12,5 11,8 12,3 4 2 11 6 NNW 995,7 0,2
24.09.2020 22:00:00 13,0 11,4 12,6 7 4 25 14 S 996,9 0,5
24.09.2020 21:00:00 13,0 10,8 12,6 14 8 32 18 SSE 997,4 2,0
24.09.2020 20:00:00 15,5 9,0 15,0 14 8 29 16 SSE 998,0 0,0
24.09.2020 19:00:00 16,2 8,6 15,3 18 10 25 14 SSE 998,6 0,0
24.09.2020 18:00:00 15,3 11,7 14,9 7 4 14 8 ESE 999,4 0,0
24.09.2020 17:00:00 14,1 11,4 14,2 14 8 32 18 W 1000,4 0,0

tt = temperature
td = dewpoint
tt 5cm = temperature 5cm
ff = wind speed
fx = gusts
dd = wind direction
ppp = reduced air pressure
rr = precipitation

Next stations